createdAt,value
2023-04-03T00:01:14.344Z,59.78
2023-04-03T00:03:42.408Z,60.09
2023-04-03T00:06:11.598Z,59.94
2023-04-03T00:08:39.338Z,59.34
2023-04-03T00:11:07.022Z,58.98
2023-04-03T00:13:34.861Z,59.41
2023-04-03T00:16:01.836Z,59.56
2023-04-03T00:18:28.591Z,59.39
2023-04-03T00:20:55.130Z,59.29
2023-04-03T00:23:22.081Z,59.74
2023-04-03T00:25:48.526Z,60.05
2023-04-03T00:28:18.079Z,60.11
2023-04-03T00:30:44.791Z,59.68
2023-04-03T00:33:15.362Z,60.29
2023-04-03T00:35:42.764Z,60.23
2023-04-03T00:38:09.773Z,60.51
2023-04-03T00:40:42.265Z,60.40
2023-04-03T00:43:25.313Z,60.28
2023-04-03T00:45:54.987Z,60.01
2023-04-03T00:48:30.366Z,59.99
2023-04-03T00:50:57.847Z,59.90
2023-04-03T00:53:32.042Z,59.95
2023-04-03T00:56:01.507Z,60.11
2023-04-03T00:58:40.880Z,60.20
2023-04-03T01:01:15.456Z,60.67
2023-04-03T01:03:42.277Z,60.83
2023-04-03T01:06:08.866Z,60.56
2023-04-03T01:08:36.436Z,60.70
2023-04-03T01:11:02.988Z,61.46
2023-04-03T01:13:33.809Z,60.97
2023-04-03T01:16:06.247Z,61.14
2023-04-03T01:18:35.336Z,61.35
2023-04-03T01:21:50.245Z,61.12
2023-04-03T01:24:34.728Z,61.18
2023-04-03T01:27:06.667Z,60.95
2023-04-03T01:29:34.087Z,60.66
2023-04-03T01:32:03.123Z,60.37
2023-04-03T01:34:31.090Z,59.90
2023-04-03T01:36:57.606Z,59.99
2023-04-03T01:39:24.145Z,59.41
2023-04-03T01:41:51.090Z,59.24
2023-04-03T01:44:17.662Z,59.11
2023-04-03T01:46:44.198Z,59.10
2023-04-03T01:49:10.985Z,58.79
2023-04-03T01:51:37.591Z,58.89
2023-04-03T01:54:04.972Z,58.78
2023-04-03T01:56:31.514Z,59.10
2023-04-03T01:58:58.019Z,58.46
2023-04-03T02:01:24.666Z,58.79
2023-04-03T02:03:51.325Z,58.61
2023-04-03T02:06:17.968Z,58.70
2023-04-03T02:08:44.432Z,58.66
2023-04-03T02:11:10.944Z,58.77
2023-04-03T02:13:37.471Z,59.12
2023-04-03T02:16:12.226Z,59.15
2023-04-03T02:18:39.763Z,59.21
2023-04-03T02:21:06.605Z,59.59
2023-04-03T02:23:33.184Z,59.38
2023-04-03T02:26:12.918Z,59.35
2023-04-03T02:28:40.558Z,60.09
2023-04-03T02:31:10.132Z,60.13
2023-04-03T02:33:37.855Z,60.12
2023-04-03T02:36:07.685Z,60.02
2023-04-03T02:38:34.791Z,59.72
2023-04-03T02:41:11.622Z,59.51
2023-04-03T02:43:39.235Z,59.59
2023-04-03T02:46:06.400Z,59.38
2023-04-03T02:48:33.491Z,59.16
2023-04-03T02:50:59.996Z,58.95
2023-04-03T02:53:26.499Z,59.22
2023-04-03T02:55:52.949Z,59.12
2023-04-03T02:58:19.465Z,58.90
2023-04-03T03:00:45.944Z,59.18
2023-04-03T03:03:14.347Z,59.01
2023-04-03T03:05:40.808Z,59.39
2023-04-03T03:08:07.248Z,59.37
2023-04-03T03:10:33.794Z,59.71
2023-04-03T03:13:00.343Z,59.46
2023-04-03T03:15:26.913Z,59.71
2023-04-03T03:17:53.449Z,59.63
2023-04-03T03:20:20.244Z,59.46
2023-04-03T03:22:46.711Z,60.24
2023-04-03T03:25:13.229Z,60.57
2023-04-03T03:27:40.657Z,60.62
2023-04-03T03:30:08.244Z,60.01
2023-04-03T03:32:34.834Z,59.92
2023-04-03T03:35:01.373Z,59.89
2023-04-03T03:37:28.643Z,59.87
2023-04-03T03:39:55.295Z,59.96
2023-04-03T03:42:21.788Z,60.12
2023-04-03T03:44:48.234Z,60.33
2023-04-03T03:47:14.696Z,60.72
2023-04-03T03:49:41.782Z,60.72
2023-04-03T03:52:11.349Z,61.00
2023-04-03T03:54:38.904Z,60.75
2023-04-03T03:57:06.019Z,60.01
2023-04-03T03:59:32.532Z,60.29
2023-04-03T04:01:59.077Z,60.47
2023-04-03T04:04:25.674Z,60.20
2023-04-03T04:06:52.725Z,60.16
2023-04-03T04:09:19.455Z,60.49
2023-04-03T04:11:45.999Z,59.93
2023-04-03T04:14:14.262Z,59.52
2023-04-03T04:16:40.986Z,59.85
2023-04-03T04:19:08.874Z,60.15
2023-04-03T04:21:36.118Z,60.04
2023-04-03T04:24:02.618Z,60.25
2023-04-03T04:26:29.114Z,60.35
2023-04-03T04:28:55.587Z,59.93
2023-04-03T04:31:22.297Z,60.24
2023-04-03T04:33:48.768Z,60.07
2023-04-03T04:36:15.873Z,59.65
2023-04-03T04:38:43.603Z,59.90
2023-04-03T04:41:10.085Z,60.02
2023-04-03T04:43:37.009Z,59.69
2023-04-03T04:46:08.849Z,59.73
2023-04-03T04:48:36.420Z,59.79
2023-04-03T04:51:04.506Z,59.52
2023-04-03T04:53:31.496Z,59.17
2023-04-03T04:55:58.001Z,59.42
2023-04-03T04:58:24.674Z,59.12
2023-04-03T05:00:51.154Z,59.09
2023-04-03T05:03:17.664Z,59.16
2023-04-03T05:05:44.204Z,59.35
2023-04-03T05:08:10.709Z,59.48
2023-04-03T05:10:37.353Z,59.54
2023-04-03T05:13:03.892Z,59.47
2023-04-03T05:15:30.574Z,59.52
2023-04-03T05:17:57.048Z,59.38
2023-04-03T05:20:24.677Z,59.57
2023-04-03T05:22:51.136Z,59.41
2023-04-03T05:25:17.622Z,59.58
2023-04-03T05:27:44.208Z,59.34
2023-04-03T05:30:11.672Z,59.19
2023-04-03T05:32:38.272Z,59.62
2023-04-03T05:35:06.734Z,59.53
2023-04-03T05:37:33.810Z,59.27
2023-04-03T05:40:00.649Z,59.61
2023-04-03T05:42:27.268Z,59.84
2023-04-03T05:44:53.928Z,59.56
2023-04-03T05:47:20.571Z,59.19
2023-04-03T05:49:47.076Z,59.36
2023-04-03T05:52:37.519Z,59.32
2023-04-03T05:55:04.966Z,59.27
2023-04-03T05:57:31.556Z,59.31
2023-04-03T05:59:58.300Z,58.82
2023-04-03T06:02:26.744Z,59.09
2023-04-03T06:04:53.588Z,58.71
2023-04-03T06:07:28.965Z,58.86
2023-04-03T06:09:58.061Z,58.97
2023-04-03T06:12:25.662Z,59.24
2023-04-03T06:14:52.238Z,59.00
2023-04-03T06:17:19.288Z,58.66
2023-04-03T06:19:46.508Z,58.57
2023-04-03T06:22:13.564Z,58.88
2023-04-03T06:24:40.354Z,58.79
2023-04-03T06:27:06.994Z,59.32
2023-04-03T06:29:33.672Z,59.52
2023-04-03T06:32:00.399Z,59.03
2023-04-03T06:34:26.960Z,59.10
2023-04-03T06:36:53.713Z,58.82
2023-04-03T06:39:23.623Z,58.54
2023-04-03T06:41:51.770Z,58.85
2023-04-03T06:44:18.762Z,58.66
2023-04-03T06:46:47.426Z,58.50
2023-04-03T06:49:14.280Z,58.66
2023-04-03T06:51:40.965Z,58.12
2023-04-03T06:54:09.198Z,58.14
2023-04-03T06:56:36.350Z,57.53
2023-04-03T06:59:03.377Z,57.33
2023-04-03T07:01:31.180Z,57.78
2023-04-03T07:03:58.474Z,57.17
2023-04-03T07:06:27.713Z,57.50
2023-04-03T07:08:55.962Z,57.55
2023-04-03T07:11:23.330Z,57.90
2023-04-03T07:13:50.376Z,57.81
2023-04-03T07:16:17.006Z,57.60
2023-04-03T07:18:43.559Z,57.47
2023-04-03T07:21:10.384Z,57.41
2023-04-03T07:23:37.426Z,57.61
2023-04-03T07:26:04.701Z,57.24
2023-04-03T07:28:31.560Z,56.87
2023-04-03T07:31:09.464Z,56.98
2023-04-03T07:33:36.601Z,56.77
2023-04-03T07:36:03.700Z,56.53
2023-04-03T07:38:30.280Z,56.36
2023-04-03T07:40:56.715Z,56.64
2023-04-03T07:43:25.585Z,56.06
2023-04-03T07:45:53.102Z,56.15
2023-04-03T07:48:22.712Z,55.85
2023-04-03T07:50:49.891Z,55.37
2023-04-03T07:53:16.935Z,55.83
2023-04-03T07:55:44.075Z,55.77
2023-04-03T07:58:18.165Z,55.63
2023-04-03T08:00:45.911Z,55.45
2023-04-03T08:03:13.756Z,55.66
2023-04-03T08:05:43.850Z,54.99
2023-04-03T08:08:14.405Z,54.83
2023-04-03T08:10:41.541Z,54.79
2023-04-03T08:13:09.501Z,55.30
2023-04-03T08:15:36.918Z,55.03
2023-04-03T08:18:04.434Z,54.79
2023-04-03T08:20:31.168Z,54.94
2023-04-03T08:22:57.803Z,53.91
2023-04-03T08:25:24.550Z,54.12
2023-04-03T08:27:51.038Z,54.03
2023-04-03T08:30:18.272Z,53.85
2023-04-03T08:32:45.458Z,53.54
2023-04-03T08:35:13.298Z,53.44
2023-04-03T08:37:40.843Z,52.97
2023-04-03T08:40:14.301Z,53.35
2023-04-03T08:43:00.988Z,52.73
2023-04-03T08:45:51.292Z,52.62
2023-04-03T08:48:28.759Z,52.31
2023-04-03T08:51:03.615Z,51.90
2023-04-03T08:53:37.056Z,52.03
2023-04-03T08:56:10.590Z,51.79
2023-04-03T08:58:53.796Z,51.81
2023-04-03T09:01:29.216Z,52.05
2023-04-03T09:03:56.034Z,51.63
2023-04-03T09:06:32.395Z,51.57
2023-04-03T09:09:11.632Z,51.54
2023-04-03T09:12:24.910Z,49.49
2023-04-03T09:15:10.002Z,51.02
2023-04-03T09:17:54.299Z,51.02
2023-04-03T09:20:47.040Z,50.19
2023-04-03T09:23:28.936Z,50.03
2023-04-03T09:26:06.367Z,50.22
2023-04-03T09:28:49.324Z,50.23
2023-04-03T09:31:25.804Z,49.06
2023-04-03T09:34:03.307Z,48.73
2023-04-03T09:37:06.873Z,48.12
2023-04-03T09:39:54.397Z,47.97
2023-04-03T09:42:27.290Z,47.53
2023-04-03T09:44:58.298Z,47.39
2023-04-03T09:47:30.901Z,46.69
2023-04-03T09:50:30.325Z,46.56
2023-04-03T09:52:57.043Z,47.15
2023-04-03T09:55:30.258Z,46.59
2023-04-03T09:58:22.965Z,45.03
2023-04-03T10:01:00.496Z,44.85
2023-04-03T10:03:36.432Z,46.11
2023-04-03T10:06:05.554Z,45.54
2023-04-03T10:08:35.737Z,45.13
2023-04-03T10:11:19.785Z,40.85
2023-04-03T10:14:00.191Z,43.44
2023-04-03T10:16:53.560Z,42.59
2023-04-03T10:19:36.858Z,41.17
2023-04-03T10:22:15.436Z,43.25
2023-04-03T10:25:05.495Z,40.75
2023-04-03T10:27:45.875Z,42.78
2023-04-03T10:30:49.322Z,42.38
2023-04-03T10:33:42.851Z,42.79
2023-04-03T10:36:38.160Z,41.58
2023-04-03T10:39:52.204Z,40.95
2023-04-03T10:42:33.741Z,43.18
2023-04-03T10:45:12.402Z,43.01
2023-04-03T10:47:46.788Z,42.46
2023-04-03T10:50:44.263Z,40.99
2023-04-03T10:53:36.394Z,42.33
2023-04-03T10:56:46.696Z,41.30
2023-04-03T10:59:17.140Z,41.27
2023-04-03T11:01:48.941Z,41.67
2023-04-03T11:04:22.136Z,41.70
2023-04-03T11:07:01.096Z,41.07
2023-04-03T11:09:34.216Z,41.18
2023-04-03T11:12:14.005Z,41.00
2023-04-03T11:14:41.868Z,41.46
2023-04-03T11:17:21.226Z,39.78
2023-04-03T11:20:28.205Z,40.79
2023-04-03T11:23:20.952Z,41.75
2023-04-03T11:25:54.243Z,41.74
2023-04-03T11:28:21.424Z,41.10
2023-04-03T11:31:19.583Z,40.75
2023-04-03T11:33:56.803Z,40.78
2023-04-03T11:36:34.613Z,40.09
2023-04-03T11:39:31.565Z,38.83
2023-04-03T11:42:17.635Z,38.42
2023-04-03T11:44:44.246Z,40.98
2023-04-03T11:47:13.204Z,40.90
2023-04-03T11:50:00.315Z,39.94
2023-04-03T11:52:40.403Z,39.97
2023-04-03T11:55:21.603Z,40.40
2023-04-03T11:58:00.343Z,41.30
2023-04-03T12:00:47.725Z,38.26
2023-04-03T12:03:32.381Z,38.58
2023-04-03T12:06:08.117Z,39.44
2023-04-03T12:08:34.673Z,40.89
2023-04-03T12:11:09.889Z,39.58
2023-04-03T12:13:43.361Z,40.51
2023-04-03T12:16:49.468Z,38.66
2023-04-03T12:19:26.522Z,40.98
2023-04-03T12:22:13.020Z,40.12
2023-04-03T12:24:44.744Z,40.93
2023-04-03T12:27:42.865Z,40.07
2023-04-03T12:30:31.456Z,41.02
2023-04-03T12:33:32.675Z,39.24
2023-04-03T12:36:17.590Z,40.57
2023-04-03T12:39:06.020Z,39.98
2023-04-03T12:41:40.694Z,39.57
2023-04-03T12:45:13.682Z,37.72
2023-04-03T12:47:49.132Z,39.81
2023-04-03T12:50:24.975Z,40.44
2023-04-03T12:53:04.806Z,39.34
2023-04-03T12:55:31.727Z,39.31
2023-04-03T12:57:58.516Z,39.30
2023-04-03T13:00:39.766Z,37.74
2023-04-03T13:03:25.271Z,38.92
2023-04-03T13:05:52.028Z,39.87
2023-04-03T13:08:20.892Z,39.57
2023-04-03T13:11:03.811Z,39.19
2023-04-03T13:13:36.087Z,39.59
2023-04-03T13:16:11.452Z,38.40
2023-04-03T13:18:39.417Z,38.78
2023-04-03T13:21:14.574Z,38.73
2023-04-03T13:23:51.551Z,38.75
2023-04-03T13:26:24.015Z,38.48
2023-04-03T13:28:52.628Z,38.68
2023-04-03T13:31:54.991Z,37.14
2023-04-03T13:34:24.675Z,39.18
2023-04-03T13:36:52.130Z,38.89
2023-04-03T13:39:26.025Z,37.91
2023-04-03T13:41:57.854Z,38.95
2023-04-03T13:44:24.205Z,39.20
2023-04-03T13:46:54.347Z,39.33
2023-04-03T13:49:28.222Z,37.53
2023-04-03T13:52:06.766Z,38.63
2023-04-03T13:54:39.417Z,38.78
2023-04-03T13:57:15.983Z,39.06
2023-04-03T13:59:44.067Z,38.00
2023-04-03T14:02:31.880Z,37.25
2023-04-03T14:05:02.699Z,38.51
2023-04-03T14:07:32.149Z,38.71
2023-04-03T14:09:59.500Z,38.99
2023-04-03T14:12:38.150Z,38.26
2023-04-03T14:15:17.607Z,38.82
2023-04-03T14:17:44.508Z,38.41
2023-04-03T14:20:18.094Z,38.38
2023-04-03T14:22:45.290Z,38.75
2023-04-03T14:25:12.240Z,38.73
2023-04-03T14:27:46.380Z,37.77
2023-04-03T14:30:34.892Z,38.26
2023-04-03T14:33:01.819Z,38.95
2023-04-03T14:35:29.098Z,38.43
2023-04-03T14:37:56.406Z,38.01
2023-04-03T14:40:27.954Z,37.89
2023-04-03T14:42:56.400Z,38.44
2023-04-03T14:45:24.634Z,38.92
2023-04-03T14:47:56.069Z,38.29
2023-04-03T14:50:27.495Z,38.02
2023-04-03T14:52:59.586Z,37.51
2023-04-03T14:55:27.570Z,37.58
2023-04-03T14:57:54.955Z,38.09
2023-04-03T15:00:23.043Z,37.97
2023-04-03T15:02:50.176Z,38.29
2023-04-03T15:05:17.687Z,38.29
2023-04-03T15:07:51.604Z,38.85
2023-04-03T15:10:28.591Z,37.49
2023-04-03T15:12:56.682Z,37.75
2023-04-03T15:15:25.200Z,38.12
2023-04-03T15:17:55.937Z,37.35
2023-04-03T15:20:27.205Z,37.48
2023-04-03T15:22:54.464Z,37.82
2023-04-03T15:25:21.054Z,37.81
2023-04-03T15:27:47.853Z,37.64
2023-04-03T15:30:19.162Z,37.43
2023-04-03T15:32:46.694Z,37.04
2023-04-03T15:35:13.271Z,37.32
2023-04-03T15:37:39.821Z,37.13
2023-04-03T15:40:07.903Z,37.33
2023-04-03T15:42:34.912Z,37.12
2023-04-03T15:45:01.800Z,36.89
2023-04-03T15:47:29.000Z,37.33
2023-04-03T15:49:56.525Z,37.67
2023-04-03T15:52:23.385Z,37.76
2023-04-03T15:54:50.242Z,37.90
2023-04-03T15:57:17.003Z,37.81
2023-04-03T15:59:43.544Z,37.75
2023-04-03T16:02:13.742Z,37.28
2023-04-03T16:04:41.249Z,36.89
2023-04-03T16:07:07.840Z,37.53
2023-04-03T16:09:36.808Z,37.51
2023-04-03T16:12:04.185Z,37.01
2023-04-03T16:14:31.377Z,37.01
2023-04-03T16:16:59.966Z,36.76
2023-04-03T16:19:26.796Z,37.09
2023-04-03T16:21:56.136Z,37.24
2023-04-03T16:24:23.217Z,36.96
2023-04-03T16:26:49.729Z,37.02
2023-04-03T16:29:16.297Z,36.87
2023-04-03T16:31:43.238Z,36.67
2023-04-03T16:34:09.810Z,36.81
2023-04-03T16:36:38.339Z,36.19
2023-04-03T16:39:05.560Z,35.89
2023-04-03T16:41:32.039Z,35.69
2023-04-03T16:43:58.569Z,35.97
2023-04-03T16:46:25.306Z,36.08
2023-04-03T16:48:51.865Z,35.83
2023-04-03T16:51:18.432Z,35.44
2023-04-03T16:53:45.009Z,35.98
2023-04-03T16:56:11.523Z,36.46
2023-04-03T16:58:38.059Z,36.67
2023-04-03T17:01:17.328Z,36.66
2023-04-03T17:03:44.391Z,37.23
2023-04-03T17:06:17.347Z,36.74
2023-04-03T17:08:46.573Z,36.56
2023-04-03T17:11:13.466Z,36.68
2023-04-03T17:13:40.270Z,36.33
2023-04-03T17:16:11.801Z,36.79
2023-04-03T17:18:38.483Z,36.57
2023-04-03T17:21:06.197Z,36.34
2023-04-03T17:23:35.724Z,37.19
2023-04-03T17:26:05.387Z,37.14
2023-04-03T17:28:32.240Z,37.47
2023-04-03T17:31:01.909Z,37.42
2023-04-03T17:33:32.873Z,37.29
2023-04-03T17:36:05.053Z,37.34
2023-04-03T17:38:33.744Z,37.47
2023-04-03T17:41:06.164Z,36.88
2023-04-03T17:43:33.173Z,37.62
2023-04-03T17:46:08.897Z,37.65
2023-04-03T17:48:38.783Z,37.95
2023-04-03T17:51:12.823Z,38.24
2023-04-03T17:53:40.213Z,38.32
2023-04-03T17:56:12.157Z,38.57
2023-04-03T17:58:38.739Z,37.66
2023-04-03T18:01:15.425Z,38.64
2023-04-03T18:03:42.618Z,39.32
2023-04-03T18:06:12.585Z,39.65
2023-04-03T18:08:46.072Z,39.81
2023-04-03T18:11:13.737Z,39.46
2023-04-03T18:13:40.502Z,39.26
2023-04-03T18:16:09.807Z,39.51
2023-04-03T18:18:36.743Z,40.05
2023-04-03T18:21:04.711Z,40.35
2023-04-03T18:23:35.662Z,40.69
2023-04-03T18:26:04.647Z,40.57
2023-04-03T18:28:32.304Z,40.25
2023-04-03T18:31:01.703Z,40.74
2023-04-03T18:33:28.447Z,40.97
2023-04-03T18:35:54.993Z,40.86
2023-04-03T18:38:21.447Z,40.63
2023-04-03T18:40:49.971Z,40.86
2023-04-03T18:43:16.726Z,40.88
2023-04-03T18:45:43.408Z,40.90
2023-04-03T18:48:10.240Z,41.21
2023-04-03T18:50:36.856Z,41.19
2023-04-03T18:53:03.463Z,41.69
2023-04-03T18:55:30.935Z,41.88
2023-04-03T18:57:57.784Z,42.08
2023-04-03T19:00:24.340Z,42.09
2023-04-03T19:02:51.212Z,42.37
2023-04-03T19:05:19.637Z,42.26
2023-04-03T19:07:48.279Z,42.40
2023-04-03T19:10:17.403Z,42.35
2023-04-03T19:12:45.359Z,42.45
2023-04-03T19:15:14.158Z,42.59
2023-04-03T19:17:41.593Z,43.20
2023-04-03T19:20:10.806Z,43.37
2023-04-03T19:22:38.017Z,43.49
2023-04-03T19:25:06.535Z,43.76
2023-04-03T19:27:34.416Z,43.59
2023-04-03T19:30:00.977Z,43.56
2023-04-03T19:32:27.559Z,44.08
2023-04-03T19:34:54.118Z,44.06
2023-04-03T19:37:20.728Z,44.17
2023-04-03T19:39:47.240Z,44.58
2023-04-03T19:42:13.787Z,44.72
2023-04-03T19:44:40.384Z,44.99
2023-04-03T19:47:06.891Z,45.32
2023-04-03T19:49:33.359Z,46.04
2023-04-03T19:51:59.868Z,46.62
2023-04-03T19:54:26.366Z,46.95
2023-04-03T19:56:53.031Z,47.39
2023-04-03T19:59:19.545Z,47.68
2023-04-03T20:01:46.444Z,47.46
2023-04-03T20:04:14.302Z,47.23
2023-04-03T20:06:40.926Z,47.96
2023-04-03T20:09:07.707Z,47.96
2023-04-03T20:11:36.877Z,47.89
2023-04-03T20:14:04.338Z,47.75
2023-04-03T20:16:30.926Z,47.79
2023-04-03T20:18:57.593Z,48.06
2023-04-03T20:21:29.976Z,48.90
2023-04-03T20:23:56.605Z,48.13
2023-04-03T20:26:27.229Z,48.86
2023-04-03T20:28:57.398Z,48.29
2023-04-03T20:31:26.754Z,48.21
2023-04-03T20:33:53.521Z,48.16
2023-04-03T20:36:23.301Z,48.11
2023-04-03T20:38:52.207Z,48.39
2023-04-03T20:41:18.886Z,48.23
2023-04-03T20:43:46.220Z,48.67
2023-04-03T20:46:14.029Z,48.37
2023-04-03T20:48:41.487Z,48.85
2023-04-03T20:51:13.626Z,49.04
2023-04-03T20:53:40.433Z,49.04
2023-04-03T20:56:09.006Z,49.33
2023-04-03T20:58:41.192Z,49.32
2023-04-03T21:01:22.794Z,49.94
2023-04-03T21:03:54.649Z,49.29
2023-04-03T21:07:18.282Z,49.24
2023-04-03T21:10:41.488Z,49.41
2023-04-03T21:14:05.424Z,50.01
2023-04-03T21:16:32.715Z,49.73
2023-04-03T21:19:15.768Z,50.31
2023-04-03T21:21:45.595Z,50.68
2023-04-03T21:24:16.091Z,50.59
2023-04-03T21:26:44.147Z,50.78
2023-04-03T21:29:11.430Z,50.96
2023-04-03T21:31:58.881Z,51.20
2023-04-03T21:34:28.436Z,50.36
2023-04-03T21:37:03.547Z,50.55
2023-04-03T21:39:30.555Z,50.14
2023-04-03T21:41:57.172Z,50.38
2023-04-03T21:44:24.808Z,49.76
2023-04-03T21:46:54.611Z,49.84
2023-04-03T21:49:25.343Z,50.35
2023-04-03T21:51:52.460Z,49.47
2023-04-03T21:54:19.722Z,50.33
2023-04-03T21:56:48.056Z,50.61
2023-04-03T21:59:15.061Z,50.04
2023-04-03T22:01:41.928Z,49.95
2023-04-03T22:04:08.461Z,50.04
2023-04-03T22:06:36.769Z,50.40
2023-04-03T22:09:03.972Z,50.76
2023-04-03T22:11:30.581Z,50.31
2023-04-03T22:13:57.095Z,49.95
2023-04-03T22:16:23.978Z,50.59
2023-04-03T22:18:56.159Z,50.69
2023-04-03T22:21:23.224Z,51.06
2023-04-03T22:23:49.732Z,50.76
2023-04-03T22:26:16.385Z,50.80
2023-04-03T22:28:46.233Z,50.87
2023-04-03T22:31:14.762Z,51.32
2023-04-03T22:33:43.535Z,51.68
2023-04-03T22:36:12.177Z,51.59
2023-04-03T22:38:39.802Z,51.59
2023-04-03T22:41:08.081Z,51.40
2023-04-03T22:43:37.375Z,51.31
2023-04-03T22:46:10.157Z,51.02
2023-04-03T22:48:43.202Z,51.05
2023-04-03T22:51:09.935Z,51.42
2023-04-03T22:53:37.635Z,51.21
2023-04-03T22:56:13.885Z,50.77
2023-04-03T22:58:40.557Z,50.91
2023-04-03T23:01:14.934Z,50.45
2023-04-03T23:03:42.807Z,49.96
2023-04-03T23:06:10.799Z,50.51
2023-04-03T23:08:41.902Z,50.60
2023-04-03T23:11:09.590Z,50.91
2023-04-03T23:13:36.916Z,51.16
2023-04-03T23:16:04.319Z,51.12
2023-04-03T23:18:39.313Z,51.50
2023-04-03T23:21:09.176Z,51.31
2023-04-03T23:23:35.928Z,51.49
2023-04-03T23:26:02.767Z,51.57
2023-04-03T23:28:29.872Z,51.66
2023-04-03T23:31:06.957Z,52.03
2023-04-03T23:33:34.097Z,51.63
2023-04-03T23:36:07.245Z,51.81
2023-04-03T23:38:34.886Z,52.28
2023-04-03T23:41:01.463Z,52.36
2023-04-03T23:43:28.770Z,52.36
2023-04-03T23:45:55.294Z,52.60
2023-04-03T23:48:21.864Z,52.26
2023-04-03T23:50:48.348Z,52.22
2023-04-03T23:53:14.851Z,52.06
2023-04-03T23:55:41.983Z,52.12
2023-04-03T23:58:08.684Z,51.58
